createdAt,value
2022-10-18T00:02:14.582Z,37.78
2022-10-18T00:05:00.976Z,37.60
2022-10-18T00:07:46.723Z,36.70
2022-10-18T00:10:32.917Z,35.92
2022-10-18T00:13:20.451Z,37.88
2022-10-18T00:16:12.288Z,37.73
2022-10-18T00:18:58.802Z,39.15
2022-10-18T00:24:36.264Z,39.45
2022-10-18T00:27:22.060Z,38.15
2022-10-18T00:30:09.497Z,40.95
2022-10-18T00:32:55.529Z,39.33
2022-10-18T00:35:42.018Z,41.33
2022-10-18T00:38:28.188Z,38.63
2022-10-18T00:41:17.693Z,37.72
2022-10-18T00:44:12.708Z,36.15
2022-10-18T00:47:05.529Z,37.92
2022-10-18T00:49:56.274Z,37.25
2022-10-18T00:52:51.909Z,38.17
2022-10-18T00:55:37.946Z,36.78
2022-10-18T00:58:23.949Z,37.75
2022-10-18T01:01:10.126Z,37.00
2022-10-18T01:03:57.959Z,40.67
2022-10-18T01:06:58.823Z,40.60
2022-10-18T01:10:15.308Z,37.85
2022-10-18T01:13:23.460Z,37.60
2022-10-18T01:16:32.881Z,38.85
2022-10-18T01:19:47.581Z,41.70
2022-10-18T01:23:04.067Z,36.97
2022-10-18T01:26:19.632Z,39.83
2022-10-18T01:29:33.320Z,43.35
2022-10-18T01:32:24.890Z,38.97
2022-10-18T01:35:35.066Z,41.95
2022-10-18T01:38:22.704Z,37.40
2022-10-18T01:41:14.786Z,40.07
2022-10-18T01:44:05.213Z,38.55
2022-10-18T01:46:54.726Z,37.30
2022-10-18T01:49:40.618Z,38.05
2022-10-18T01:52:27.620Z,37.13
2022-10-18T01:55:13.298Z,42.90
2022-10-18T01:58:20.986Z,38.35
2022-10-18T02:01:36.406Z,39.30
2022-10-18T02:04:46.755Z,37.25
2022-10-18T02:07:39.994Z,37.50
2022-10-18T02:10:34.060Z,40.00
2022-10-18T02:13:22.917Z,41.92
2022-10-18T02:16:28.619Z,41.90
2022-10-18T02:19:33.115Z,42.40
2022-10-18T02:22:20.313Z,38.10
2022-10-18T02:25:11.991Z,43.17
2022-10-18T02:27:59.010Z,39.88
2022-10-18T02:31:06.550Z,43.03
2022-10-18T02:34:16.862Z,42.03
2022-10-18T02:37:03.209Z,43.10
2022-10-18T02:39:50.956Z,43.30
2022-10-18T02:42:39.903Z,41.30
2022-10-18T02:45:26.865Z,39.75
2022-10-18T02:48:12.703Z,37.57
2022-10-18T02:50:59.309Z,49.03
2022-10-18T02:53:45.165Z,40.20
2022-10-18T02:56:31.165Z,41.40
2022-10-18T02:59:16.951Z,39.70
2022-10-18T03:02:03.264Z,37.00
2022-10-18T03:04:49.952Z,42.65
2022-10-18T03:07:35.806Z,40.93
2022-10-18T03:10:21.452Z,37.60
2022-10-18T03:13:07.138Z,40.38
2022-10-18T03:15:53.018Z,38.10
2022-10-18T03:18:39.289Z,37.60
2022-10-18T03:21:25.101Z,38.88
2022-10-18T03:24:11.012Z,39.22
2022-10-18T03:26:56.836Z,40.83
2022-10-18T03:29:42.365Z,41.80
2022-10-18T03:32:28.237Z,39.83
2022-10-18T03:35:14.291Z,37.92
2022-10-18T03:38:00.121Z,35.13
2022-10-18T03:40:46.086Z,32.70
2022-10-18T03:43:32.276Z,35.65
2022-10-18T03:46:18.759Z,32.90
2022-10-18T03:49:05.121Z,34.65
2022-10-18T03:51:51.246Z,33.90
2022-10-18T03:54:37.038Z,33.83
2022-10-18T03:57:23.205Z,35.10
2022-10-18T04:00:09.753Z,33.43
2022-10-18T04:02:58.819Z,34.25
2022-10-18T04:05:46.624Z,34.88
2022-10-18T04:08:32.616Z,35.20
2022-10-18T04:11:18.823Z,34.47
2022-10-18T04:14:05.240Z,34.00
2022-10-18T04:16:51.028Z,35.47
2022-10-18T04:19:37.230Z,34.28
2022-10-18T04:22:23.672Z,34.20
2022-10-18T04:25:10.440Z,34.45
2022-10-18T04:27:56.641Z,34.00
2022-10-18T04:30:42.938Z,33.40
2022-10-18T04:33:28.621Z,35.53
2022-10-18T04:36:14.651Z,32.47
2022-10-18T04:39:00.437Z,34.35
2022-10-18T04:41:47.136Z,33.50
2022-10-18T04:44:32.757Z,31.65
2022-10-18T04:47:19.078Z,37.35
2022-10-18T04:50:06.185Z,35.40
2022-10-18T04:52:53.640Z,36.00
2022-10-18T04:55:39.830Z,33.38
2022-10-18T04:58:27.110Z,37.53
2022-10-18T05:01:13.819Z,34.08
2022-10-18T05:03:59.364Z,36.20
2022-10-18T05:06:44.956Z,34.17
2022-10-18T05:09:30.786Z,31.88
2022-10-18T05:12:17.729Z,34.20
2022-10-18T05:15:03.970Z,34.15
2022-10-18T05:17:50.045Z,38.43
2022-10-18T05:20:36.126Z,30.85
2022-10-18T05:23:22.945Z,30.35
2022-10-18T05:26:09.804Z,31.55
2022-10-18T05:28:55.624Z,29.25
2022-10-18T05:31:41.540Z,35.78
2022-10-18T05:34:31.808Z,34.80
2022-10-18T05:37:18.675Z,44.22
2022-10-18T05:40:05.078Z,29.67
2022-10-18T05:42:54.095Z,39.97
2022-10-18T05:45:39.677Z,31.70
2022-10-18T05:48:26.570Z,36.30
2022-10-18T05:51:12.278Z,36.37
2022-10-18T05:53:58.864Z,30.52
2022-10-18T05:56:45.258Z,31.27
2022-10-18T05:59:31.654Z,33.27
2022-10-18T06:02:17.770Z,27.20
2022-10-18T06:05:03.782Z,25.67
2022-10-18T06:07:50.419Z,27.83
2022-10-18T06:10:38.871Z,21.92
2022-10-18T06:13:25.243Z,19.27
2022-10-18T06:16:12.561Z,18.27
2022-10-18T06:18:59.925Z,17.77
2022-10-18T06:21:45.764Z,16.75
2022-10-18T06:24:32.270Z,16.48
2022-10-18T06:27:18.773Z,16.48
2022-10-18T06:30:05.657Z,16.73
2022-10-18T06:32:52.221Z,15.93
2022-10-18T06:35:38.177Z,14.80
2022-10-18T06:38:24.201Z,14.07
2022-10-18T06:41:10.393Z,14.95
2022-10-18T06:43:58.660Z,14.23
2022-10-18T06:46:46.187Z,14.27
2022-10-18T06:49:32.542Z,14.38
2022-10-18T06:52:18.731Z,14.23
2022-10-18T06:55:08.990Z,14.00
2022-10-18T06:57:55.321Z,14.55
2022-10-18T07:00:41.261Z,14.43
2022-10-18T07:03:27.304Z,14.35
2022-10-18T07:06:15.913Z,13.63
2022-10-18T07:09:03.207Z,17.98
2022-10-18T07:11:49.949Z,14.60
2022-10-18T07:14:35.701Z,15.98
2022-10-18T07:17:21.274Z,14.43
2022-10-18T07:20:07.738Z,15.57
2022-10-18T07:22:57.155Z,15.50
2022-10-18T07:25:43.080Z,16.13
2022-10-18T07:28:29.994Z,15.50
2022-10-18T07:31:15.775Z,17.73
2022-10-18T07:34:07.139Z,15.68
2022-10-18T07:36:53.108Z,17.20
2022-10-18T07:39:38.988Z,17.50
2022-10-18T07:42:24.962Z,18.02
2022-10-18T07:45:12.556Z,17.45
2022-10-18T07:47:59.034Z,19.25
2022-10-18T07:50:45.852Z,18.08
2022-10-18T07:53:31.625Z,16.23
2022-10-18T07:56:21.837Z,18.15
2022-10-18T07:59:11.184Z,17.20
2022-10-18T08:01:57.100Z,19.23
2022-10-18T08:04:43.737Z,19.30
2022-10-18T08:07:29.691Z,17.50
2022-10-18T08:10:16.435Z,18.27
2022-10-18T08:13:02.606Z,19.40
2022-10-18T08:15:48.775Z,18.25
2022-10-18T08:18:36.610Z,22.25
2022-10-18T08:21:22.557Z,19.15
2022-10-18T08:24:08.797Z,18.77
2022-10-18T08:26:54.934Z,19.33
2022-10-18T08:29:41.133Z,20.77
2022-10-18T08:32:28.480Z,19.23
2022-10-18T08:35:14.326Z,19.13
2022-10-18T08:38:00.317Z,19.40
2022-10-18T08:40:46.294Z,19.02
2022-10-18T08:43:46.211Z,18.85
2022-10-18T08:46:38.296Z,20.00
2022-10-18T08:49:31.756Z,19.02
2022-10-18T08:52:35.844Z,18.98
2022-10-18T08:55:30.056Z,22.20
2022-10-18T08:58:18.502Z,18.92
2022-10-18T09:01:08.490Z,16.33
2022-10-18T09:04:16.854Z,17.20
2022-10-18T09:07:05.831Z,19.60
2022-10-18T09:10:05.183Z,16.13
2022-10-18T09:12:50.953Z,17.25
2022-10-18T09:15:45.154Z,17.88
2022-10-18T09:19:04.160Z,15.38
2022-10-18T09:21:53.964Z,17.42
2022-10-18T09:25:20.268Z,18.33
2022-10-18T09:28:23.365Z,16.17
2022-10-18T09:31:46.576Z,19.42
2022-10-18T09:34:40.404Z,18.67
2022-10-18T09:37:32.846Z,18.25
2022-10-18T09:40:26.938Z,19.73
2022-10-18T09:43:19.334Z,16.50
2022-10-18T09:46:06.270Z,15.90
2022-10-18T09:49:02.003Z,15.15
2022-10-18T09:51:49.717Z,17.02
2022-10-18T09:54:42.282Z,17.70
2022-10-18T09:57:57.477Z,16.45
2022-10-18T10:00:52.780Z,14.07
2022-10-18T10:03:39.063Z,15.70
2022-10-18T10:06:28.124Z,15.45
2022-10-18T10:09:15.989Z,14.73
2022-10-18T10:12:03.135Z,16.60
2022-10-18T10:14:49.038Z,15.13
2022-10-18T10:17:35.155Z,14.15
2022-10-18T10:20:25.899Z,15.15
2022-10-18T10:23:37.968Z,16.35
2022-10-18T10:26:25.089Z,15.25
2022-10-18T10:29:48.403Z,14.65
2022-10-18T10:32:47.602Z,13.68
2022-10-18T10:35:53.197Z,14.52
2022-10-18T10:38:40.092Z,12.73
2022-10-18T10:41:26.521Z,15.33
2022-10-18T10:44:21.095Z,14.73
2022-10-18T10:47:08.107Z,12.10
2022-10-18T10:49:57.091Z,12.30
2022-10-18T10:52:48.082Z,12.70
2022-10-18T10:55:36.565Z,11.35
2022-10-18T10:58:24.010Z,10.93
2022-10-18T11:01:29.256Z,10.88
2022-10-18T11:04:30.159Z,11.70
2022-10-18T11:07:25.300Z,13.45
2022-10-18T11:10:11.204Z,13.23
2022-10-18T11:13:05.152Z,14.02
2022-10-18T11:15:57.281Z,17.55
2022-10-18T11:18:47.214Z,17.38
2022-10-18T11:21:33.856Z,18.03
2022-10-18T11:24:20.324Z,14.52
2022-10-18T11:27:14.681Z,14.50
2022-10-18T11:30:23.900Z,14.73
2022-10-18T11:34:07.171Z,16.73
2022-10-18T11:37:25.932Z,18.85
2022-10-18T11:40:27.295Z,17.58
2022-10-18T11:43:14.047Z,18.17
2022-10-18T11:46:21.030Z,19.95
2022-10-18T11:49:28.664Z,20.92
2022-10-18T11:52:32.856Z,15.88
2022-10-18T11:55:21.778Z,18.07
2022-10-18T11:58:34.357Z,17.92
2022-10-18T12:01:39.289Z,17.83
2022-10-18T12:04:30.921Z,18.58
2022-10-18T12:07:23.393Z,18.55
2022-10-18T12:10:26.325Z,17.42
2022-10-18T12:13:35.327Z,19.47
2022-10-18T12:16:45.418Z,20.98
2022-10-18T12:19:34.564Z,18.30
2022-10-18T12:22:35.223Z,23.30
2022-10-18T12:25:21.050Z,18.90
2022-10-18T12:28:37.135Z,18.33
2022-10-18T12:31:53.074Z,16.40
2022-10-18T12:34:45.233Z,17.30
2022-10-18T12:38:04.805Z,17.70
2022-10-18T12:40:53.874Z,15.05
2022-10-18T12:43:40.103Z,18.05
2022-10-18T12:46:44.688Z,15.20
2022-10-18T12:49:40.151Z,15.73
2022-10-18T12:52:32.004Z,16.05
2022-10-18T12:55:21.703Z,15.52
2022-10-18T12:58:24.633Z,15.57
2022-10-18T13:01:10.933Z,16.25
2022-10-18T13:03:57.010Z,19.70
2022-10-18T13:07:05.446Z,15.02
2022-10-18T13:10:10.161Z,14.30
2022-10-18T13:13:45.655Z,16.52
2022-10-18T13:16:56.764Z,16.50
2022-10-18T13:20:20.523Z,14.13
2022-10-18T13:23:25.193Z,15.30
2022-10-18T13:26:23.679Z,15.68
2022-10-18T13:29:43.602Z,13.90
2022-10-18T13:32:44.894Z,16.05
2022-10-18T13:35:57.288Z,14.13
2022-10-18T13:38:47.212Z,15.13
2022-10-18T13:41:35.452Z,18.42
2022-10-18T13:44:38.334Z,15.73
2022-10-18T13:47:37.343Z,16.70
2022-10-18T13:50:34.246Z,17.83
2022-10-18T13:53:47.037Z,15.40
2022-10-18T13:56:39.037Z,17.77
2022-10-18T13:59:54.716Z,16.92
2022-10-18T14:03:51.880Z,16.70
2022-10-18T14:06:40.932Z,14.15
2022-10-18T14:09:43.537Z,13.27
2022-10-18T14:12:37.933Z,16.52
2022-10-18T14:15:33.816Z,13.18
2022-10-18T14:18:31.818Z,14.95
2022-10-18T14:21:31.122Z,12.90
2022-10-18T14:24:28.959Z,13.33
2022-10-18T14:27:19.142Z,13.98
2022-10-18T14:30:16.518Z,12.65
2022-10-18T14:33:02.851Z,12.68
2022-10-18T14:36:12.897Z,17.48
2022-10-18T14:39:04.363Z,13.48
2022-10-18T14:41:55.097Z,12.20
2022-10-18T14:44:41.197Z,12.63
2022-10-18T14:47:31.048Z,12.85
2022-10-18T14:50:30.659Z,11.43
2022-10-18T14:53:21.996Z,11.32
2022-10-18T14:56:15.922Z,11.05
2022-10-18T14:59:04.935Z,11.98
2022-10-18T15:01:56.683Z,13.50
2022-10-18T15:04:45.582Z,13.80
2022-10-18T15:07:32.742Z,14.55
2022-10-18T15:10:24.712Z,12.50
2022-10-18T15:13:13.355Z,10.40
2022-10-18T15:16:00.821Z,12.90
2022-10-18T15:19:02.875Z,12.93
2022-10-18T15:22:19.734Z,12.90
2022-10-18T15:25:15.896Z,12.73
2022-10-18T15:28:02.883Z,14.10
2022-10-18T15:30:48.677Z,14.75
2022-10-18T15:33:34.906Z,12.38
2022-10-18T15:36:29.518Z,13.05
2022-10-18T15:39:23.365Z,17.08
2022-10-18T15:42:38.493Z,12.15
2022-10-18T15:45:24.671Z,12.80
2022-10-18T15:48:12.978Z,14.27
2022-10-18T15:51:07.427Z,14.73
2022-10-18T15:53:55.010Z,14.73
2022-10-18T15:56:41.183Z,16.40
2022-10-18T15:59:31.167Z,14.23
2022-10-18T16:02:17.568Z,15.60
2022-10-18T16:05:04.174Z,13.97
2022-10-18T16:07:53.258Z,16.50
2022-10-18T16:10:39.211Z,18.17
2022-10-18T16:13:26.817Z,16.30
2022-10-18T16:16:22.355Z,17.38
2022-10-18T16:19:09.234Z,18.13
2022-10-18T16:21:55.232Z,16.23
2022-10-18T16:24:41.433Z,19.10
2022-10-18T16:27:26.961Z,18.95
2022-10-18T16:30:17.156Z,16.52
2022-10-18T16:33:02.934Z,16.67
2022-10-18T16:35:49.157Z,16.52
2022-10-18T16:38:36.852Z,21.88
2022-10-18T16:41:23.562Z,21.40
2022-10-18T16:44:09.445Z,18.50
2022-10-18T16:46:56.255Z,18.73
2022-10-18T16:49:43.901Z,40.63
2022-10-18T16:52:29.485Z,18.60
2022-10-18T16:55:21.280Z,18.48
2022-10-18T16:58:11.689Z,16.67
2022-10-18T17:00:58.582Z,20.38
2022-10-18T17:03:44.266Z,20.02
2022-10-18T17:06:32.841Z,20.33
2022-10-18T17:09:19.352Z,19.92
2022-10-18T17:12:05.863Z,17.80
2022-10-18T17:14:51.742Z,19.98
2022-10-18T17:17:38.451Z,15.98
2022-10-18T17:20:26.445Z,23.38
2022-10-18T17:23:12.589Z,20.00
2022-10-18T17:26:06.725Z,23.27
2022-10-18T17:28:57.845Z,18.48
2022-10-18T17:31:43.766Z,18.80
2022-10-18T17:34:29.586Z,19.52
2022-10-18T17:37:16.436Z,20.90
2022-10-18T17:40:02.997Z,18.38
2022-10-18T17:42:48.625Z,18.83
2022-10-18T17:45:35.001Z,18.95
2022-10-18T17:48:21.906Z,20.65
2022-10-18T17:51:10.039Z,19.63
2022-10-18T17:53:56.610Z,17.40
2022-10-18T17:56:42.655Z,18.70
2022-10-18T17:59:28.927Z,22.83
2022-10-18T18:02:14.534Z,90.45
2022-10-18T18:05:08.072Z,23.10
2022-10-18T18:07:54.668Z,22.63
2022-10-18T18:10:41.753Z,17.45
2022-10-18T18:13:28.053Z,19.83
2022-10-18T18:16:22.605Z,21.60
2022-10-18T18:19:10.131Z,18.80
2022-10-18T18:21:58.722Z,21.23
2022-10-18T18:24:44.989Z,21.67
2022-10-18T18:27:31.042Z,21.15
2022-10-18T18:30:18.055Z,19.52
2022-10-18T18:33:04.601Z,21.05
2022-10-18T18:35:58.545Z,24.45
2022-10-18T18:38:45.390Z,24.73
2022-10-18T18:41:31.745Z,20.03
2022-10-18T18:44:19.718Z,23.35
2022-10-18T18:47:12.284Z,22.80
2022-10-18T18:50:00.312Z,23.88
2022-10-18T18:52:46.669Z,21.50
2022-10-18T18:55:33.170Z,22.55
2022-10-18T18:58:19.352Z,24.13
2022-10-18T19:01:14.965Z,21.80
2022-10-18T19:04:01.389Z,19.45
2022-10-18T19:06:47.526Z,22.45
2022-10-18T19:09:33.533Z,23.57
2022-10-18T19:12:21.393Z,21.88
2022-10-18T19:15:08.026Z,21.35
2022-10-18T19:17:56.257Z,23.70
2022-10-18T19:20:43.071Z,21.00
2022-10-18T19:23:29.427Z,23.38
2022-10-18T19:26:25.745Z,22.95
2022-10-18T19:29:23.307Z,22.67
2022-10-18T19:32:15.042Z,20.75
2022-10-18T19:35:01.654Z,23.75
2022-10-18T19:37:47.913Z,24.70
2022-10-18T19:40:34.017Z,23.00
2022-10-18T19:43:20.780Z,33.25
2022-10-18T19:46:07.395Z,27.17
2022-10-18T19:48:54.368Z,27.02
2022-10-18T19:51:43.605Z,23.75
2022-10-18T19:54:29.771Z,23.38
2022-10-18T19:57:16.224Z,22.55
2022-10-18T20:00:05.453Z,22.08
2022-10-18T20:02:58.052Z,23.35
2022-10-18T20:05:43.636Z,22.95
2022-10-18T20:08:33.221Z,24.15
2022-10-18T20:11:22.349Z,25.63
2022-10-18T20:14:10.091Z,29.23
2022-10-18T20:16:56.078Z,24.58
2022-10-18T20:19:42.437Z,28.47
2022-10-18T20:22:31.903Z,22.83
2022-10-18T20:25:18.663Z,24.60
2022-10-18T20:28:05.377Z,26.65
2022-10-18T20:31:15.376Z,24.85
2022-10-18T20:34:05.174Z,23.95
2022-10-18T20:36:54.604Z,29.15
2022-10-18T20:39:40.659Z,25.43
2022-10-18T20:42:26.611Z,27.43
2022-10-18T20:45:15.720Z,24.52
2022-10-18T20:48:01.969Z,91.27
2022-10-18T20:50:47.583Z,25.83
2022-10-18T20:53:35.216Z,26.08
2022-10-18T20:56:24.020Z,26.00
2022-10-18T20:59:11.495Z,28.77
2022-10-18T21:01:57.548Z,28.77
2022-10-18T21:04:43.937Z,26.25
2022-10-18T21:07:33.668Z,24.58
2022-10-18T21:10:20.585Z,25.75
2022-10-18T21:13:06.793Z,29.10
2022-10-18T21:15:59.959Z,27.98
2022-10-18T21:18:45.841Z,27.23
2022-10-18T21:21:32.543Z,27.77
2022-10-18T21:24:20.167Z,29.90
2022-10-18T21:27:06.605Z,30.23
2022-10-18T21:29:53.068Z,27.52
2022-10-18T21:32:38.799Z,29.45
2022-10-18T21:35:25.566Z,27.45
2022-10-18T21:38:11.385Z,29.58
2022-10-18T21:40:57.690Z,32.83
2022-10-18T21:43:46.536Z,28.10
2022-10-18T21:46:33.140Z,35.03
2022-10-18T21:49:18.797Z,30.75
2022-10-18T21:52:05.468Z,32.53
2022-10-18T21:54:51.489Z,32.35
2022-10-18T21:57:37.587Z,27.98
2022-10-18T22:00:23.894Z,28.35
2022-10-18T22:03:13.098Z,33.20
2022-10-18T22:06:07.595Z,33.15
2022-10-18T22:08:56.652Z,31.90
2022-10-18T22:11:46.242Z,30.50
2022-10-18T22:14:32.268Z,33.47
2022-10-18T22:17:18.007Z,33.85
2022-10-18T22:20:03.723Z,31.70
2022-10-18T22:22:54.232Z,30.50
2022-10-18T22:25:40.236Z,30.55
2022-10-18T22:28:26.153Z,28.50
2022-10-18T22:31:21.996Z,48.63
2022-10-18T22:34:13.637Z,32.97
2022-10-18T22:36:59.916Z,29.45
2022-10-18T22:39:45.572Z,31.42
2022-10-18T22:42:31.955Z,33.90
2022-10-18T22:45:18.447Z,29.98
2022-10-18T22:48:05.330Z,29.60
2022-10-18T22:50:50.789Z,35.22
2022-10-18T22:53:38.326Z,33.40
2022-10-18T22:56:25.054Z,33.22
2022-10-18T22:59:11.324Z,34.58
2022-10-18T23:01:57.092Z,34.67
2022-10-18T23:04:42.954Z,32.78
2022-10-18T23:07:28.913Z,33.65
2022-10-18T23:10:14.993Z,32.63
2022-10-18T23:13:01.151Z,33.30
2022-10-18T23:15:46.867Z,32.05
2022-10-18T23:18:33.237Z,32.03
2022-10-18T23:21:20.920Z,31.38
2022-10-18T23:24:07.419Z,30.67
2022-10-18T23:26:53.146Z,32.95
2022-10-18T23:29:41.629Z,32.95
2022-10-18T23:32:28.578Z,33.47
2022-10-18T23:35:15.426Z,32.72
2022-10-18T23:38:01.224Z,33.63
2022-10-18T23:40:47.544Z,34.80
2022-10-18T23:43:34.274Z,34.95
2022-10-18T23:46:21.597Z,33.88
2022-10-18T23:49:07.502Z,31.10
2022-10-18T23:51:53.414Z,32.70
2022-10-18T23:54:39.406Z,30.90
2022-10-18T23:57:25.459Z,31.35
